createdAt,value
2023-03-02T00:01:09.986Z,-0.82
2023-03-02T00:03:39.728Z,-0.84
2023-03-02T00:06:08.124Z,-0.88
2023-03-02T00:08:37.578Z,-0.93
2023-03-02T00:11:05.982Z,-0.99
2023-03-02T00:13:37.480Z,-1.03
2023-03-02T00:16:06.093Z,-1.05
2023-03-02T00:18:34.390Z,-1.08
2023-03-02T00:21:02.634Z,-1.09
2023-03-02T00:23:31.444Z,-1.11
2023-03-02T00:26:03.082Z,-1.12
2023-03-02T00:28:33.427Z,-1.13
2023-03-02T00:31:04.294Z,-1.14
2023-03-02T00:33:37.227Z,-1.19
2023-03-02T00:36:05.751Z,-1.24
2023-03-02T00:38:34.299Z,-1.29
2023-03-02T00:41:02.757Z,-1.34
2023-03-02T00:43:31.874Z,-1.36
2023-03-02T00:46:00.548Z,-1.39
2023-03-02T00:48:29.292Z,-1.39
2023-03-02T00:51:00.525Z,-1.40
2023-03-02T00:53:33.779Z,-1.43
2023-03-02T00:56:03.315Z,-1.44
2023-03-02T00:58:32.790Z,-1.45
2023-03-02T01:01:07.106Z,-1.46
2023-03-02T01:03:36.672Z,-1.44
2023-03-02T01:06:13.660Z,-1.42
2023-03-02T01:08:42.958Z,-1.39
2023-03-02T01:11:15.172Z,-1.39
2023-03-02T01:13:43.943Z,-1.41
2023-03-02T01:16:12.243Z,-1.44
2023-03-02T01:18:44.821Z,-1.49
2023-03-02T01:21:13.768Z,-1.53
2023-03-02T01:23:42.688Z,-1.55
2023-03-02T01:26:11.522Z,-1.56
2023-03-02T01:28:40.364Z,-1.58
2023-03-02T01:31:10.513Z,-1.60
2023-03-02T01:33:39.995Z,-1.62
2023-03-02T01:36:13.069Z,-1.64
2023-03-02T01:38:41.563Z,-1.67
2023-03-02T01:41:10.168Z,-1.67
2023-03-02T01:43:38.504Z,-1.67
2023-03-02T01:46:25.452Z,-1.68
2023-03-02T01:49:03.501Z,-1.69
2023-03-02T01:51:44.329Z,-1.69
2023-03-02T01:54:17.436Z,-1.69
2023-03-02T01:56:45.825Z,-1.69
2023-03-02T01:59:14.674Z,-1.70
2023-03-02T02:01:43.595Z,-1.72
2023-03-02T02:04:11.969Z,-1.74
2023-03-02T02:06:42.971Z,-1.76
2023-03-02T02:09:12.793Z,-1.79
2023-03-02T02:11:42.617Z,-1.81
2023-03-02T02:14:12.141Z,-1.82
2023-03-02T02:16:41.745Z,-1.84
2023-03-02T02:19:15.759Z,-1.86
2023-03-02T02:21:44.243Z,-1.87
2023-03-02T02:24:18.805Z,-1.87
2023-03-02T02:26:49.139Z,-1.87
2023-03-02T02:29:22.912Z,-1.87
2023-03-02T02:32:06.982Z,-1.86
2023-03-02T02:34:39.876Z,-1.86
2023-03-02T02:37:20.559Z,-1.88
2023-03-02T02:39:50.269Z,-1.91
2023-03-02T02:42:20.226Z,-1.93
2023-03-02T02:44:49.135Z,-1.95
2023-03-02T02:47:20.869Z,-1.99
2023-03-02T02:49:50.059Z,-2.03
2023-03-02T02:52:19.972Z,-2.07
2023-03-02T02:54:51.131Z,-2.09
2023-03-02T02:57:19.708Z,-2.10
2023-03-02T02:59:48.624Z,-2.11
2023-03-02T03:02:20.960Z,-2.14
2023-03-02T03:04:49.489Z,-2.17
2023-03-02T03:07:22.001Z,-2.19
2023-03-02T03:10:11.615Z,-2.21
2023-03-02T03:12:43.523Z,-2.24
2023-03-02T03:15:12.051Z,-2.25
2023-03-02T03:17:41.131Z,-2.29
2023-03-02T03:20:09.710Z,-2.32
2023-03-02T03:22:41.181Z,-2.35
2023-03-02T03:25:15.631Z,-2.37
2023-03-02T03:27:46.707Z,-2.37
2023-03-02T03:30:17.921Z,-2.37
2023-03-02T03:32:47.558Z,-2.38
2023-03-02T03:35:16.683Z,-2.38
2023-03-02T03:37:45.962Z,-2.36
2023-03-02T03:40:16.265Z,-2.35
2023-03-02T03:42:46.835Z,-2.35
2023-03-02T03:45:15.442Z,-2.35
2023-03-02T03:47:45.044Z,-2.36
2023-03-02T03:50:13.566Z,-2.38
2023-03-02T03:52:42.548Z,-2.41
2023-03-02T03:55:18.337Z,-2.44
2023-03-02T03:57:47.398Z,-2.46
2023-03-02T04:00:17.440Z,-2.49
2023-03-02T04:02:51.513Z,-2.51
2023-03-02T04:05:20.712Z,-2.53
2023-03-02T04:07:52.158Z,-2.53
2023-03-02T04:10:21.464Z,-2.53
2023-03-02T04:12:55.959Z,-2.52
2023-03-02T04:15:25.936Z,-2.52
2023-03-02T04:17:54.454Z,-2.53
2023-03-02T04:20:24.133Z,-2.53
2023-03-02T04:22:56.377Z,-2.52
2023-03-02T04:25:25.655Z,-2.51
2023-03-02T04:27:57.744Z,-2.49
2023-03-02T04:30:29.660Z,-2.49
2023-03-02T04:32:59.289Z,-2.47
2023-03-02T04:35:29.922Z,-2.43
2023-03-02T04:37:59.230Z,-2.40
2023-03-02T04:40:27.871Z,-2.38
2023-03-02T04:42:56.098Z,-2.31
2023-03-02T04:45:24.401Z,-2.27
2023-03-02T04:47:54.593Z,-2.21
2023-03-02T04:50:26.195Z,-2.00
2023-03-02T04:52:57.002Z,-1.33
2023-03-02T04:55:25.931Z,-0.38
2023-03-02T04:57:54.137Z,0.62
2023-03-02T05:00:22.540Z,1.60
2023-03-02T05:02:51.250Z,2.55
2023-03-02T05:05:21.876Z,3.46
2023-03-02T05:07:50.670Z,4.34
2023-03-02T05:10:20.243Z,5.16
2023-03-02T05:12:58.453Z,5.96
2023-03-02T05:15:27.693Z,6.70
2023-03-02T05:17:56.654Z,7.34
2023-03-02T05:20:30.477Z,8.04
2023-03-02T05:23:00.591Z,8.74
2023-03-02T05:25:30.023Z,9.37
2023-03-02T05:28:00.718Z,9.92
2023-03-02T05:30:29.407Z,10.54
2023-03-02T05:32:57.791Z,11.13
2023-03-02T05:35:27.517Z,11.86
2023-03-02T05:37:55.983Z,12.14
2023-03-02T05:40:24.172Z,12.30
2023-03-02T05:42:52.446Z,12.55
2023-03-02T05:45:24.727Z,12.75
2023-03-02T05:47:53.049Z,13.13
2023-03-02T05:50:21.398Z,13.33
2023-03-02T05:52:50.656Z,13.65
2023-03-02T05:55:19.106Z,14.02
2023-03-02T05:57:49.464Z,14.13
2023-03-02T06:00:18.944Z,14.40
2023-03-02T06:02:47.550Z,14.85
2023-03-02T06:05:17.088Z,15.15
2023-03-02T06:07:45.472Z,15.38
2023-03-02T06:10:14.049Z,15.77
2023-03-02T06:12:42.394Z,16.24
2023-03-02T06:15:11.507Z,16.63
2023-03-02T06:17:40.457Z,16.93
2023-03-02T06:20:12.542Z,17.20
2023-03-02T06:22:42.211Z,17.27
2023-03-02T06:25:10.595Z,17.33
2023-03-02T06:27:43.028Z,17.56
2023-03-02T06:30:12.099Z,17.60
2023-03-02T06:32:40.531Z,17.60
2023-03-02T06:35:09.806Z,17.94
2023-03-02T06:37:38.159Z,18.46
2023-03-02T06:40:14.137Z,18.87
2023-03-02T06:42:42.805Z,19.26
2023-03-02T06:45:11.347Z,19.39
2023-03-02T06:47:41.429Z,19.44
2023-03-02T06:50:10.146Z,19.51
2023-03-02T06:52:39.901Z,19.82
2023-03-02T06:55:08.506Z,20.18
2023-03-02T06:57:36.856Z,20.47
2023-03-02T07:00:10.405Z,20.60
2023-03-02T07:02:45.137Z,20.43
2023-03-02T07:05:14.569Z,20.49
2023-03-02T07:07:49.561Z,20.70
2023-03-02T07:10:18.407Z,20.77
2023-03-02T07:12:46.790Z,20.57
2023-03-02T07:15:22.389Z,20.32
2023-03-02T07:17:50.742Z,20.47
2023-03-02T07:20:19.272Z,20.80
2023-03-02T07:22:49.005Z,21.00
2023-03-02T07:25:17.573Z,20.77
2023-03-02T07:27:50.031Z,20.85
2023-03-02T07:30:21.422Z,21.05
2023-03-02T07:32:49.666Z,21.20
2023-03-02T07:35:18.299Z,21.31
2023-03-02T07:37:46.497Z,21.26
2023-03-02T07:40:14.738Z,21.15
2023-03-02T07:42:43.016Z,20.89
2023-03-02T07:45:13.710Z,20.18
2023-03-02T07:47:43.030Z,19.30
2023-03-02T07:50:11.547Z,19.06
2023-03-02T07:52:40.527Z,18.98
2023-03-02T07:55:09.366Z,19.14
2023-03-02T07:57:39.190Z,19.49
2023-03-02T08:00:07.913Z,19.92
2023-03-02T08:02:42.197Z,20.33
2023-03-02T08:05:13.348Z,20.75
2023-03-02T08:07:46.881Z,21.20
2023-03-02T08:10:15.170Z,21.41
2023-03-02T08:12:44.326Z,21.28
2023-03-02T08:15:14.062Z,20.91
2023-03-02T08:17:42.703Z,20.33
2023-03-02T08:20:15.538Z,20.16
2023-03-02T08:22:43.926Z,20.27
2023-03-02T08:25:12.546Z,19.94
2023-03-02T08:27:42.503Z,19.67
2023-03-02T08:30:11.017Z,19.49
2023-03-02T08:32:39.959Z,19.51
2023-03-02T08:35:09.488Z,19.63
2023-03-02T08:37:38.672Z,19.67
2023-03-02T08:40:07.595Z,20.11
2023-03-02T08:42:35.936Z,20.35
2023-03-02T08:45:06.240Z,20.56
2023-03-02T08:47:34.860Z,20.77
2023-03-02T08:50:04.157Z,20.77
2023-03-02T08:52:35.631Z,20.79
2023-03-02T08:55:05.166Z,20.78
2023-03-02T08:57:35.031Z,20.75
2023-03-02T09:00:03.861Z,20.87
2023-03-02T09:02:32.605Z,20.76
2023-03-02T09:05:01.253Z,20.71
2023-03-02T09:07:30.757Z,20.68
2023-03-02T09:10:01.901Z,20.45
2023-03-02T09:12:30.529Z,20.32
2023-03-02T09:14:59.023Z,20.17
2023-03-02T09:17:28.364Z,19.89
2023-03-02T09:19:56.919Z,19.55
2023-03-02T09:22:25.300Z,19.48
2023-03-02T09:24:53.478Z,19.23
2023-03-02T09:27:21.822Z,18.86
2023-03-02T09:29:50.064Z,18.46
2023-03-02T09:32:18.742Z,18.33
2023-03-02T09:34:47.141Z,18.44
2023-03-02T09:37:15.423Z,18.71
2023-03-02T09:39:43.716Z,18.80
2023-03-02T09:42:19.779Z,18.80
2023-03-02T09:44:54.092Z,18.53
2023-03-02T09:47:35.227Z,17.85
2023-03-02T09:50:24.295Z,17.24
2023-03-02T09:52:52.558Z,17.14
2023-03-02T09:55:27.692Z,17.23
2023-03-02T09:58:02.527Z,17.15
2023-03-02T10:00:32.391Z,17.03
2023-03-02T10:03:14.726Z,16.99
2023-03-02T10:05:44.783Z,16.78
2023-03-02T10:08:18.903Z,16.68
2023-03-02T10:10:51.676Z,17.02
2023-03-02T10:13:25.505Z,17.12
2023-03-02T10:16:14.222Z,17.15
2023-03-02T10:18:44.308Z,17.07
2023-03-02T10:21:22.493Z,17.11
2023-03-02T10:24:00.813Z,17.12
2023-03-02T10:26:42.837Z,17.03
2023-03-02T10:29:23.445Z,17.14
2023-03-02T10:31:58.658Z,17.27
2023-03-02T10:34:28.413Z,17.33
2023-03-02T10:36:56.811Z,17.16
2023-03-02T10:39:25.114Z,16.98
2023-03-02T10:41:56.590Z,16.82
2023-03-02T10:44:27.910Z,16.61
2023-03-02T10:46:57.438Z,16.12
2023-03-02T10:49:32.663Z,15.59
2023-03-02T10:52:02.704Z,15.44
2023-03-02T10:54:32.269Z,15.44
2023-03-02T10:57:02.692Z,15.39
2023-03-02T10:59:46.612Z,15.35
2023-03-02T11:02:23.803Z,15.33
2023-03-02T11:04:57.639Z,15.35
2023-03-02T11:07:27.982Z,15.38
2023-03-02T11:09:58.465Z,15.07
2023-03-02T11:12:26.953Z,14.84
2023-03-02T11:15:16.296Z,14.75
2023-03-02T11:17:44.923Z,14.69
2023-03-02T11:20:18.004Z,14.63
2023-03-02T11:22:52.468Z,14.58
2023-03-02T11:25:32.798Z,14.46
2023-03-02T11:28:03.480Z,14.23
2023-03-02T11:30:32.185Z,14.12
2023-03-02T11:33:15.129Z,14.04
2023-03-02T11:35:51.787Z,13.90
2023-03-02T11:38:33.012Z,13.68
2023-03-02T11:41:16.575Z,13.39
2023-03-02T11:43:45.169Z,13.08
2023-03-02T11:46:21.561Z,12.95
2023-03-02T11:48:51.066Z,12.85
2023-03-02T11:51:19.272Z,12.69
2023-03-02T11:53:52.318Z,12.53
2023-03-02T11:56:20.611Z,12.37
2023-03-02T11:58:50.214Z,12.10
2023-03-02T12:01:20.011Z,11.85
2023-03-02T12:03:48.247Z,11.48
2023-03-02T12:06:25.316Z,11.07
2023-03-02T12:09:07.876Z,10.85
2023-03-02T12:11:38.994Z,10.73
2023-03-02T12:14:43.989Z,10.66
2023-03-02T12:17:27.657Z,10.56
2023-03-02T12:20:07.496Z,10.26
2023-03-02T12:22:37.778Z,10.03
2023-03-02T12:25:26.557Z,9.83
2023-03-02T12:27:56.672Z,9.49
2023-03-02T12:30:26.864Z,9.11
2023-03-02T12:33:10.378Z,8.88
2023-03-02T12:35:38.696Z,8.76
2023-03-02T12:38:14.690Z,8.63
2023-03-02T12:40:58.611Z,8.44
2023-03-02T12:43:27.331Z,8.32
2023-03-02T12:46:15.043Z,8.31
2023-03-02T12:48:46.601Z,8.32
2023-03-02T12:51:17.479Z,8.20
2023-03-02T12:53:45.988Z,8.13
2023-03-02T12:56:24.881Z,8.13
2023-03-02T12:58:54.133Z,8.13
2023-03-02T13:01:23.702Z,8.15
2023-03-02T13:03:53.097Z,8.18
2023-03-02T13:06:23.288Z,8.15
2023-03-02T13:08:54.295Z,8.14
2023-03-02T13:11:31.306Z,8.07
2023-03-02T13:14:03.877Z,7.97
2023-03-02T13:16:33.573Z,7.87
2023-03-02T13:19:02.883Z,7.78
2023-03-02T13:21:32.897Z,7.72
2023-03-02T13:24:01.432Z,7.66
2023-03-02T13:26:36.607Z,7.65
2023-03-02T13:29:32.147Z,7.70
2023-03-02T13:32:20.116Z,7.62
2023-03-02T13:34:49.946Z,7.53
2023-03-02T13:37:22.870Z,7.56
2023-03-02T13:39:54.723Z,7.63
2023-03-02T13:42:27.157Z,7.68
2023-03-02T13:44:55.359Z,7.68
2023-03-02T13:47:24.124Z,7.68
2023-03-02T13:49:53.197Z,7.66
2023-03-02T13:52:21.603Z,7.63
2023-03-02T13:54:51.236Z,7.60
2023-03-02T13:57:22.202Z,7.63
2023-03-02T13:59:50.516Z,7.63
2023-03-02T14:02:25.987Z,7.53
2023-03-02T14:04:54.606Z,7.39
2023-03-02T14:07:23.003Z,7.30
2023-03-02T14:09:51.371Z,7.22
2023-03-02T14:12:24.360Z,7.15
2023-03-02T14:14:52.751Z,7.10
2023-03-02T14:17:22.263Z,7.10
2023-03-02T14:19:53.056Z,7.09
2023-03-02T14:22:21.715Z,7.08
2023-03-02T14:24:52.312Z,7.02
2023-03-02T14:27:20.974Z,6.99
2023-03-02T14:29:49.481Z,6.96
2023-03-02T14:32:18.145Z,6.88
2023-03-02T14:34:46.775Z,6.84
2023-03-02T14:37:15.638Z,6.79
2023-03-02T14:39:47.397Z,6.73
2023-03-02T14:42:16.725Z,6.66
2023-03-02T14:44:49.410Z,6.58
2023-03-02T14:47:19.855Z,6.49
2023-03-02T14:49:49.523Z,6.39
2023-03-02T14:52:21.321Z,6.30
2023-03-02T14:54:51.832Z,6.21
2023-03-02T14:57:25.457Z,6.08
2023-03-02T14:59:53.930Z,5.94
2023-03-02T15:02:26.197Z,5.80
2023-03-02T15:05:12.309Z,5.66
2023-03-02T15:07:44.308Z,5.55
2023-03-02T15:10:18.100Z,5.43
2023-03-02T15:12:46.509Z,5.32
2023-03-02T15:15:16.708Z,5.21
2023-03-02T15:17:45.583Z,5.09
2023-03-02T15:20:17.201Z,4.99
2023-03-02T15:22:47.167Z,4.89
2023-03-02T15:25:15.484Z,4.78
2023-03-02T15:27:44.049Z,4.69
2023-03-02T15:30:12.788Z,4.61
2023-03-02T15:32:41.418Z,4.52
2023-03-02T15:35:10.028Z,4.42
2023-03-02T15:37:39.465Z,4.34
2023-03-02T15:40:08.409Z,4.25
2023-03-02T15:42:37.401Z,4.17
2023-03-02T15:45:06.964Z,4.10
2023-03-02T15:47:37.680Z,4.03
2023-03-02T15:50:06.164Z,3.97
2023-03-02T15:52:34.441Z,3.89
2023-03-02T15:55:03.061Z,3.83
2023-03-02T15:57:31.403Z,3.76
2023-03-02T16:00:04.345Z,3.69
2023-03-02T16:02:35.921Z,3.63
2023-03-02T16:05:08.743Z,3.56
2023-03-02T16:07:39.565Z,3.50
2023-03-02T16:10:08.505Z,3.44
2023-03-02T16:12:37.116Z,3.39
2023-03-02T16:15:05.618Z,3.34
2023-03-02T16:17:33.998Z,3.28
2023-03-02T16:20:02.715Z,3.23
2023-03-02T16:22:31.124Z,3.17
2023-03-02T16:25:00.886Z,3.12
2023-03-02T16:27:30.681Z,3.07
2023-03-02T16:29:58.957Z,3.02
2023-03-02T16:32:27.664Z,2.97
2023-03-02T16:34:55.965Z,2.90
2023-03-02T16:37:24.181Z,2.86
2023-03-02T16:39:52.549Z,2.79
2023-03-02T16:42:22.769Z,2.75
2023-03-02T16:44:51.220Z,2.72
2023-03-02T16:47:19.468Z,2.67
2023-03-02T16:49:48.798Z,2.62
2023-03-02T16:52:17.721Z,2.58
2023-03-02T16:54:46.679Z,2.54
2023-03-02T16:57:15.111Z,2.50
2023-03-02T16:59:43.407Z,2.46
2023-03-02T17:02:11.932Z,2.42
2023-03-02T17:04:42.835Z,2.37
2023-03-02T17:07:11.343Z,2.32
2023-03-02T17:09:42.413Z,2.28
2023-03-02T17:12:11.534Z,2.27
2023-03-02T17:14:40.930Z,2.23
2023-03-02T17:17:11.284Z,2.19
2023-03-02T17:19:40.321Z,2.16
2023-03-02T17:22:08.589Z,2.12
2023-03-02T17:24:36.908Z,2.08
2023-03-02T17:27:13.131Z,2.05
2023-03-02T17:29:48.899Z,2.01
2023-03-02T17:32:17.422Z,1.98
2023-03-02T17:34:45.676Z,1.96
2023-03-02T17:37:14.344Z,1.98
2023-03-02T17:39:42.969Z,2.02
2023-03-02T17:42:11.645Z,2.01
2023-03-02T17:44:40.498Z,2.01
2023-03-02T17:47:11.350Z,1.98
2023-03-02T17:49:40.846Z,1.93
2023-03-02T17:52:09.857Z,1.88
2023-03-02T17:54:38.581Z,1.84
2023-03-02T17:57:07.182Z,1.80
2023-03-02T17:59:36.199Z,1.76
2023-03-02T18:02:04.587Z,1.71
2023-03-02T18:04:34.291Z,1.68
2023-03-02T18:07:03.161Z,1.64
2023-03-02T18:09:31.822Z,1.61
2023-03-02T18:12:01.250Z,1.58
2023-03-02T18:14:30.786Z,1.55
2023-03-02T18:17:05.071Z,1.53
2023-03-02T18:19:33.600Z,1.52
2023-03-02T18:22:02.048Z,1.53
2023-03-02T18:24:30.460Z,1.53
2023-03-02T18:26:59.286Z,1.53
2023-03-02T18:29:27.540Z,1.54
2023-03-02T18:31:56.144Z,1.53
2023-03-02T18:34:24.425Z,1.51
2023-03-02T18:36:52.887Z,1.50
2023-03-02T18:39:21.312Z,1.47
2023-03-02T18:41:49.858Z,1.44
2023-03-02T18:44:18.922Z,1.43
2023-03-02T18:46:47.184Z,1.42
2023-03-02T18:49:15.449Z,1.42
2023-03-02T18:51:44.123Z,1.43
2023-03-02T18:54:13.192Z,1.44
2023-03-02T18:56:41.562Z,1.44
2023-03-02T18:59:09.932Z,1.48
2023-03-02T19:01:38.380Z,1.49
2023-03-02T19:04:06.765Z,1.41
2023-03-02T19:06:36.468Z,1.24
2023-03-02T19:09:05.307Z,1.10
2023-03-02T19:11:33.526Z,0.99
2023-03-02T19:14:02.021Z,0.91
2023-03-02T19:16:31.015Z,0.87
2023-03-02T19:18:59.312Z,0.87
2023-03-02T19:21:27.565Z,0.89
2023-03-02T19:23:56.001Z,0.92
2023-03-02T19:26:24.345Z,0.95
2023-03-02T19:28:52.724Z,0.95
2023-03-02T19:31:21.644Z,0.93
2023-03-02T19:33:49.854Z,0.92
2023-03-02T19:36:18.027Z,0.93
2023-03-02T19:38:46.715Z,0.96
2023-03-02T19:41:17.410Z,0.99
2023-03-02T19:43:46.336Z,0.99
2023-03-02T19:46:15.308Z,0.98
2023-03-02T19:48:43.626Z,0.97
2023-03-02T19:51:12.382Z,0.93
2023-03-02T19:53:41.549Z,0.89
2023-03-02T19:56:12.925Z,0.83
2023-03-02T19:58:47.511Z,0.77
2023-03-02T20:01:17.343Z,0.71
2023-03-02T20:03:48.328Z,0.63
2023-03-02T20:06:16.813Z,0.59
2023-03-02T20:08:45.168Z,0.59
2023-03-02T20:11:16.563Z,0.61
2023-03-02T20:13:45.517Z,0.63
2023-03-02T20:16:13.827Z,0.63
2023-03-02T20:18:43.387Z,0.64
2023-03-02T20:21:11.712Z,0.62
2023-03-02T20:23:40.048Z,0.61
2023-03-02T20:26:08.928Z,0.61
2023-03-02T20:28:37.509Z,0.58
2023-03-02T20:31:09.054Z,0.53
2023-03-02T20:33:41.942Z,0.48
2023-03-02T20:36:15.406Z,0.43
2023-03-02T20:38:45.619Z,0.38
2023-03-02T20:41:14.248Z,0.35
2023-03-02T20:43:44.464Z,0.31
2023-03-02T20:46:13.596Z,0.32
2023-03-02T20:48:42.665Z,0.38
2023-03-02T20:51:10.997Z,0.46
2023-03-02T20:53:47.218Z,0.53
2023-03-02T20:56:15.895Z,0.56
2023-03-02T20:58:44.494Z,0.59
2023-03-02T21:01:12.995Z,0.60
2023-03-02T21:03:41.477Z,0.59
2023-03-02T21:06:09.661Z,0.59
2023-03-02T21:08:39.258Z,0.59
2023-03-02T21:11:12.842Z,0.57
2023-03-02T21:13:45.835Z,0.53
2023-03-02T21:16:21.179Z,0.50
2023-03-02T21:18:50.100Z,0.44
2023-03-02T21:21:21.499Z,0.40
2023-03-02T21:23:51.453Z,0.36
2023-03-02T21:26:20.673Z,0.34
2023-03-02T21:28:48.962Z,0.31
2023-03-02T21:31:18.523Z,0.27
2023-03-02T21:33:47.103Z,0.24
2023-03-02T21:36:22.149Z,0.21
2023-03-02T21:38:51.284Z,0.19
2023-03-02T21:41:19.567Z,0.14
2023-03-02T21:43:48.722Z,0.11
2023-03-02T21:46:18.079Z,0.10
2023-03-02T21:48:47.894Z,0.11
2023-03-02T21:51:16.586Z,0.10
2023-03-02T21:53:44.890Z,0.09
2023-03-02T21:56:16.405Z,0.08
2023-03-02T21:58:47.430Z,0.10
2023-03-02T22:01:15.888Z,0.12
2023-03-02T22:03:45.125Z,0.14
2023-03-02T22:06:17.495Z,0.14
2023-03-02T22:08:45.738Z,0.15
2023-03-02T22:11:16.122Z,0.16
2023-03-02T22:13:44.666Z,0.17
2023-03-02T22:16:13.908Z,0.19
2023-03-02T22:18:42.756Z,0.19
2023-03-02T22:21:23.282Z,0.16
2023-03-02T22:24:04.057Z,0.13
2023-03-02T22:26:35.382Z,0.09
2023-03-02T22:29:12.910Z,0.05
2023-03-02T22:31:43.230Z,0.02
2023-03-02T22:34:30.225Z,-0.05
2023-03-02T22:36:59.533Z,-0.11
2023-03-02T22:39:29.108Z,-0.16
2023-03-02T22:42:02.288Z,-0.19
2023-03-02T22:44:30.599Z,-0.18
2023-03-02T22:46:59.124Z,-0.18
2023-03-02T22:49:27.608Z,-0.21
2023-03-02T22:52:01.657Z,-0.24
2023-03-02T22:54:37.387Z,-0.27
2023-03-02T22:57:24.730Z,-0.30
2023-03-02T22:59:53.196Z,-0.35
2023-03-02T23:02:25.402Z,-0.39
2023-03-02T23:04:53.965Z,-0.41
2023-03-02T23:07:22.423Z,-0.42
2023-03-02T23:09:51.266Z,-0.43
2023-03-02T23:12:23.401Z,-0.42
2023-03-02T23:14:57.997Z,-0.41
2023-03-02T23:17:39.322Z,-0.40
2023-03-02T23:20:10.235Z,-0.38
2023-03-02T23:22:39.595Z,-0.37
2023-03-02T23:25:09.000Z,-0.37
2023-03-02T23:27:38.625Z,-0.40
2023-03-02T23:30:07.000Z,-0.42
2023-03-02T23:32:36.798Z,-0.44
2023-03-02T23:35:05.352Z,-0.45
2023-03-02T23:37:37.918Z,-0.46
2023-03-02T23:40:06.552Z,-0.45
2023-03-02T23:42:34.766Z,-0.45
2023-03-02T23:45:03.118Z,-0.45
2023-03-02T23:47:36.960Z,-0.45
2023-03-02T23:50:06.607Z,-0.43
2023-03-02T23:52:34.969Z,-0.43
2023-03-02T23:55:03.623Z,-0.45
2023-03-02T23:57:32.108Z,-0.52
